createdAt,value
2023-07-20T00:03:26.544Z,19.59
2023-07-20T00:07:28.266Z,19.52
2023-07-20T00:11:30.030Z,19.47
2023-07-20T00:15:31.746Z,19.43
2023-07-20T00:19:33.616Z,19.40
2023-07-20T00:23:36.482Z,19.30
2023-07-20T00:27:38.431Z,19.19
2023-07-20T00:31:40.291Z,19.10
2023-07-20T00:35:42.023Z,19.05
2023-07-20T00:39:43.693Z,19.04
2023-07-20T00:43:45.386Z,19.05
2023-07-20T00:47:47.595Z,19.04
2023-07-20T00:51:50.843Z,19.02
2023-07-20T00:55:52.783Z,18.98
2023-07-20T00:59:55.043Z,18.89
2023-07-20T01:03:56.766Z,18.76
2023-07-20T01:08:03.735Z,18.61
2023-07-20T01:12:13.275Z,18.45
2023-07-20T01:16:14.963Z,18.26
2023-07-20T01:20:19.158Z,18.10
2023-07-20T01:24:32.530Z,17.92
2023-07-20T01:29:09.178Z,17.75
2023-07-20T01:33:14.517Z,17.61
2023-07-20T01:37:18.031Z,17.48
2023-07-20T01:41:20.075Z,17.38
2023-07-20T01:45:22.109Z,17.27
2023-07-20T01:49:23.884Z,17.21
2023-07-20T01:53:25.564Z,17.11
2023-07-20T01:57:27.263Z,17.02
2023-07-20T02:01:29.994Z,16.92
2023-07-20T02:05:31.838Z,16.81
2023-07-20T02:09:33.638Z,16.73
2023-07-20T02:13:35.404Z,16.68
2023-07-20T02:17:37.188Z,16.62
2023-07-20T02:21:40.220Z,16.55
2023-07-20T02:25:42.166Z,16.50
2023-07-20T02:29:44.006Z,16.45
2023-07-20T02:33:47.092Z,16.38
2023-07-20T02:37:49.024Z,16.34
2023-07-20T02:41:51.655Z,16.31
2023-07-20T02:45:54.671Z,16.26
2023-07-20T02:49:56.378Z,16.20
2023-07-20T02:53:58.210Z,16.14
2023-07-20T02:57:59.984Z,16.08
2023-07-20T03:02:01.755Z,16.03
2023-07-20T03:06:03.587Z,15.99
2023-07-20T03:10:07.839Z,15.93
2023-07-20T03:14:09.548Z,15.90
2023-07-20T03:18:11.678Z,15.88
2023-07-20T03:22:13.447Z,15.83
2023-07-20T03:26:15.192Z,15.79
2023-07-20T03:30:17.004Z,15.70
2023-07-20T03:34:18.777Z,15.65
2023-07-20T03:38:21.269Z,15.61
2023-07-20T03:42:23.015Z,15.61
2023-07-20T03:46:25.111Z,15.59
2023-07-20T03:50:27.125Z,15.59
2023-07-20T03:54:28.796Z,15.58
2023-07-20T03:58:31.490Z,15.57
2023-07-20T04:02:33.744Z,15.58
2023-07-20T04:06:35.583Z,15.57
2023-07-20T04:10:37.306Z,15.56
2023-07-20T04:14:39.174Z,15.57
2023-07-20T04:18:40.946Z,15.60
2023-07-20T04:22:42.784Z,15.61
2023-07-20T04:26:47.604Z,15.61
2023-07-20T04:30:52.458Z,15.62
2023-07-20T04:34:54.794Z,15.64
2023-07-20T04:38:56.827Z,15.67
2023-07-20T04:42:58.931Z,15.68
2023-07-20T04:47:01.058Z,15.72
2023-07-20T04:51:04.602Z,15.77
2023-07-20T04:55:06.756Z,15.79
2023-07-20T04:59:08.755Z,15.84
2023-07-20T05:03:10.676Z,15.88
2023-07-20T05:07:12.763Z,15.94
2023-07-20T05:11:14.724Z,16.01
2023-07-20T05:15:16.723Z,16.06
2023-07-20T05:19:18.598Z,16.13
2023-07-20T05:23:23.728Z,16.20
2023-07-20T05:27:25.722Z,16.27
2023-07-20T05:31:27.682Z,16.33
2023-07-20T05:35:29.532Z,16.40
2023-07-20T05:39:33.676Z,16.52
2023-07-20T05:43:35.404Z,16.61
2023-07-20T05:47:38.763Z,16.75
2023-07-20T05:51:40.542Z,16.89
2023-07-20T05:55:42.537Z,17.02
2023-07-20T05:59:45.599Z,17.14
2023-07-20T06:03:47.480Z,17.27
2023-07-20T06:07:49.182Z,17.41
2023-07-20T06:11:51.205Z,17.56
2023-07-20T06:15:53.030Z,17.70
2023-07-20T06:19:54.744Z,17.82
2023-07-20T06:23:56.487Z,17.92
2023-07-20T06:27:58.598Z,18.03
2023-07-20T06:32:00.890Z,18.18
2023-07-20T06:36:02.647Z,18.33
2023-07-20T06:44:10.641Z,18.83
2023-07-20T06:48:12.419Z,19.21
2023-07-20T06:52:14.195Z,19.30
2023-07-20T06:56:16.384Z,19.34
2023-07-20T07:00:18.409Z,19.49
2023-07-20T07:04:21.557Z,19.68
2023-07-20T07:08:23.385Z,19.98
2023-07-20T07:12:25.241Z,20.63
2023-07-20T07:16:27.232Z,21.16
2023-07-20T07:20:29.293Z,21.37
2023-07-20T07:24:34.943Z,21.34
2023-07-20T07:28:37.790Z,21.35
2023-07-20T07:32:39.578Z,21.20
2023-07-20T07:36:41.765Z,21.21
2023-07-20T07:40:44.096Z,21.08
2023-07-20T07:44:46.468Z,21.00
2023-07-20T07:48:48.914Z,21.06
2023-07-20T07:52:50.639Z,21.52
2023-07-20T07:56:54.764Z,21.99
2023-07-20T08:00:56.617Z,22.06
2023-07-20T08:04:58.714Z,21.71
2023-07-20T08:09:02.554Z,21.55
2023-07-20T08:13:04.765Z,21.82
2023-07-20T08:17:07.847Z,22.15
2023-07-20T08:21:09.891Z,22.33
2023-07-20T08:25:11.677Z,22.41
2023-07-20T08:29:13.369Z,22.42
2023-07-20T08:33:16.222Z,22.57
2023-07-20T08:37:18.092Z,22.47
2023-07-20T08:41:20.628Z,22.56
2023-07-20T08:45:23.580Z,22.43
2023-07-20T08:49:25.498Z,22.37
2023-07-20T08:53:29.770Z,22.62
2023-07-20T08:57:34.300Z,22.94
2023-07-20T09:01:40.795Z,22.87
2023-07-20T09:05:44.766Z,22.94
2023-07-20T09:09:48.659Z,23.25
2023-07-20T09:14:10.776Z,23.78
2023-07-20T09:18:12.528Z,23.79
2023-07-20T09:22:14.985Z,23.82
2023-07-20T09:26:17.798Z,23.67
2023-07-20T09:30:20.284Z,23.68
2023-07-20T09:38:27.574Z,24.02
2023-07-20T09:50:55.745Z,24.24
2023-07-20T09:54:58.762Z,24.37
2023-07-20T09:59:01.396Z,24.20
2023-07-20T10:03:05.188Z,24.58
2023-07-20T10:07:12.787Z,24.94
2023-07-20T10:11:17.216Z,25.04
2023-07-20T10:15:22.495Z,25.04
2023-07-20T10:19:50.592Z,25.36
2023-07-20T10:23:53.161Z,25.82
2023-07-20T10:27:56.159Z,25.68
2023-07-20T10:31:59.301Z,25.51
2023-07-20T10:36:08.927Z,25.51
2023-07-20T10:40:34.231Z,25.78
2023-07-20T10:44:38.698Z,25.91
2023-07-20T10:49:07.084Z,25.78
2023-07-20T10:53:13.840Z,25.95
2023-07-20T10:57:32.940Z,26.37
2023-07-20T11:01:37.937Z,26.55
2023-07-20T11:05:42.027Z,26.22
2023-07-20T11:09:46.796Z,26.58
2023-07-20T11:14:02.151Z,26.77
2023-07-20T11:18:16.045Z,27.36
2023-07-20T11:22:18.847Z,27.60
2023-07-20T11:26:20.747Z,27.48
2023-07-20T11:30:22.799Z,27.19
2023-07-20T11:34:25.639Z,26.89
2023-07-20T11:38:27.327Z,26.10
2023-07-20T11:46:35.816Z,26.86
2023-07-20T11:50:41.190Z,26.80
2023-07-20T11:54:48.779Z,26.33
2023-07-20T11:58:51.402Z,26.20
2023-07-20T12:02:55.057Z,26.25
2023-07-20T12:06:56.969Z,26.14
2023-07-20T12:10:58.978Z,26.15
2023-07-20T12:15:21.299Z,26.16
2023-07-20T12:19:26.721Z,25.95
2023-07-20T12:23:35.895Z,25.67
2023-07-20T12:27:38.912Z,25.77
2023-07-20T12:31:40.907Z,25.92
2023-07-20T12:35:44.523Z,25.96
2023-07-20T12:39:48.308Z,25.94
2023-07-20T12:43:51.807Z,25.99
2023-07-20T12:47:53.564Z,26.03
2023-07-20T12:51:55.450Z,26.36
2023-07-20T12:55:57.263Z,27.85
2023-07-20T12:59:59.046Z,29.74
2023-07-20T13:12:11.827Z,34.24
2023-07-20T13:16:13.705Z,35.55
2023-07-20T13:20:15.789Z,36.26
2023-07-20T13:24:18.403Z,36.63
2023-07-20T13:28:20.220Z,35.58
2023-07-20T13:32:22.135Z,33.66
2023-07-20T13:36:24.603Z,31.81
2023-07-20T13:40:26.444Z,30.72
2023-07-20T13:44:30.560Z,30.23
2023-07-20T13:48:37.405Z,30.35
2023-07-20T13:52:42.480Z,29.83
2023-07-20T13:56:44.266Z,29.01
2023-07-20T14:00:46.237Z,28.63
2023-07-20T14:06:17.433Z,28.39
2023-07-20T14:09:14.811Z,28.29
2023-07-20T14:13:17.189Z,30.15
2023-07-20T14:17:19.091Z,31.90
2023-07-20T14:21:25.424Z,32.20
2023-07-20T14:25:29.689Z,33.19
2023-07-20T14:29:32.845Z,33.99
2023-07-20T14:33:36.309Z,33.00
2023-07-20T14:37:38.865Z,32.38
2023-07-20T14:41:41.263Z,31.52
2023-07-20T14:45:43.230Z,30.88
2023-07-20T14:49:45.832Z,30.51
2023-07-20T14:53:47.662Z,30.73
2023-07-20T14:57:49.766Z,30.43
2023-07-20T15:01:55.860Z,29.97
2023-07-20T15:05:57.617Z,30.20
2023-07-20T15:09:59.489Z,31.01
2023-07-20T15:14:01.474Z,30.91
2023-07-20T15:18:03.374Z,32.35
2023-07-20T15:22:09.859Z,34.07
2023-07-20T15:26:12.665Z,34.37
2023-07-20T15:30:50.253Z,33.45
2023-07-20T15:34:37.157Z,32.31
2023-07-20T15:38:39.589Z,31.36
2023-07-20T15:42:53.390Z,30.58
2023-07-20T15:46:56.050Z,29.69
2023-07-20T15:50:57.753Z,29.37
2023-07-20T15:54:59.523Z,29.50
2023-07-20T15:59:01.311Z,29.33
2023-07-20T16:03:03.171Z,28.91
2023-07-20T16:07:08.247Z,28.34
2023-07-20T16:11:10.282Z,27.99
2023-07-20T16:15:12.614Z,27.55
2023-07-20T16:19:14.242Z,27.11
2023-07-20T16:23:16.131Z,26.82
2023-07-20T16:27:18.177Z,26.53
2023-07-20T16:31:19.977Z,26.33
2023-07-20T16:35:23.932Z,26.17
2023-07-20T16:39:47.760Z,26.07
2023-07-20T16:47:55.865Z,25.81
2023-07-20T16:51:58.714Z,25.69
2023-07-20T16:56:00.645Z,25.59
2023-07-20T17:00:02.983Z,25.53
2023-07-20T17:04:04.912Z,25.54
2023-07-20T17:08:06.775Z,25.58
2023-07-20T17:12:09.692Z,25.71
2023-07-20T17:16:11.932Z,25.78
2023-07-20T17:32:29.628Z,25.85
2023-07-20T17:40:37.479Z,25.48
2023-07-20T17:44:39.525Z,25.35
2023-07-20T17:48:41.460Z,25.29
2023-07-20T17:52:43.418Z,25.15
2023-07-20T17:56:45.498Z,25.04
2023-07-20T18:00:47.460Z,24.87
2023-07-20T18:04:49.155Z,24.62
2023-07-20T18:08:50.916Z,24.43
2023-07-20T18:12:53.466Z,24.27
2023-07-20T18:16:55.221Z,24.11
2023-07-20T18:20:56.979Z,23.98
2023-07-20T18:24:58.713Z,23.85
2023-07-20T18:29:02.483Z,23.80
2023-07-20T18:33:05.285Z,23.74
2023-07-20T18:37:07.114Z,23.62
2023-07-20T18:41:08.856Z,23.46
2023-07-20T18:45:10.833Z,23.26
2023-07-20T18:49:12.515Z,23.10
2023-07-20T18:53:14.409Z,22.91
2023-07-20T18:57:16.232Z,22.71
2023-07-20T19:01:18.107Z,22.51
2023-07-20T19:05:20.278Z,22.30
2023-07-20T19:09:22.636Z,22.10
2023-07-20T19:13:24.385Z,21.93
2023-07-20T19:17:26.931Z,21.78
2023-07-20T19:21:29.378Z,21.65
2023-07-20T19:25:32.669Z,21.54
2023-07-20T19:29:35.000Z,21.44
2023-07-20T19:33:36.907Z,21.32
2023-07-20T19:37:39.113Z,21.22
2023-07-20T19:41:40.831Z,21.13
2023-07-20T19:45:42.818Z,21.04
2023-07-20T19:49:44.556Z,20.97
2023-07-20T19:57:51.079Z,20.86
2023-07-20T20:01:52.851Z,20.82
2023-07-20T20:05:55.129Z,20.75
2023-07-20T20:09:57.109Z,20.73
2023-07-20T20:13:58.837Z,20.68
2023-07-20T20:18:01.149Z,20.65
2023-07-20T20:22:05.308Z,20.65
2023-07-20T20:26:08.402Z,20.63
2023-07-20T20:30:11.127Z,20.59
2023-07-20T20:34:12.814Z,20.58
2023-07-20T20:38:14.929Z,20.52
2023-07-20T20:42:16.886Z,20.49
2023-07-20T20:46:21.990Z,20.48
2023-07-20T20:50:24.215Z,20.45
2023-07-20T20:54:26.111Z,20.41
2023-07-20T20:58:28.008Z,20.36
2023-07-20T21:02:29.779Z,20.33
2023-07-20T21:06:31.786Z,20.32
2023-07-20T21:10:34.741Z,20.33
2023-07-20T21:14:36.611Z,20.32
2023-07-20T21:18:38.712Z,20.30
2023-07-20T21:22:41.420Z,20.25
2023-07-20T21:26:43.127Z,20.23
2023-07-20T21:30:46.154Z,20.24
2023-07-20T21:34:47.948Z,20.23
2023-07-20T21:38:49.770Z,20.22
2023-07-20T21:42:52.514Z,20.20
2023-07-20T21:46:54.414Z,20.17
2023-07-20T21:50:56.930Z,20.16
2023-07-20T21:54:58.650Z,20.12
2023-07-20T21:59:00.543Z,20.11
2023-07-20T22:03:03.216Z,20.11
2023-07-20T22:07:14.954Z,20.09
2023-07-20T22:11:16.931Z,20.10
2023-07-20T22:15:18.832Z,20.06
2023-07-20T22:19:20.699Z,20.02
2023-07-20T22:23:22.829Z,20.00
2023-07-20T22:27:24.611Z,19.97
2023-07-20T22:31:26.680Z,19.94
2023-07-20T22:35:28.927Z,19.93
2023-07-20T22:39:33.137Z,19.92
2023-07-20T22:43:34.878Z,19.93
2023-07-20T22:47:39.787Z,19.96
2023-07-20T22:51:41.665Z,19.96
2023-07-20T22:55:47.806Z,19.98
2023-07-20T22:59:49.826Z,19.96
2023-07-20T23:03:51.776Z,19.91
2023-07-20T23:07:54.335Z,19.91
2023-07-20T23:12:02.334Z,19.89
2023-07-20T23:16:05.359Z,19.86
2023-07-20T23:20:19.293Z,19.86
2023-07-20T23:24:21.253Z,19.85
2023-07-20T23:28:26.141Z,19.87
2023-07-20T23:32:27.892Z,19.85
2023-07-20T23:36:29.738Z,19.79
2023-07-20T23:40:31.539Z,19.75
2023-07-20T23:44:33.732Z,19.71
2023-07-20T23:48:42.391Z,19.67
2023-07-20T23:52:45.189Z,19.62
2023-07-20T23:56:47.669Z,19.57
